Minamitorishima, Japan
Current Conditions -  °F | °C
As of 3:00 AM on Tuesday 21 Oct 2014 (Local Time) from RJAW Reporting Station
Scattered Clouds Scattered Clouds  
Wind Chill: 75°   Ceiling: Unl
Heat Index: 75°   Visibility: 6mi
Dew Point: 68°   Wind: 17mph
Humidity: 78%   Direction: 70°ENE
Pressure: 29.97"   Gusts: NA
Location:  24.3°N, 153.97°E
Report Text: RJAW 201800Z 07015KT 9999 SCT015 24/20 Q1015 RMK 4CU015 A3000
Loading
Personal Weather Stations






























Interactive Weather Map
Tropical Storm Tracking
New forecast layout! Learn more

10-Day Weather Forecast

Advertisements
Track Severe Weather on mobile